createdAt,value
2022-07-30T00:02:02.243Z,2.27
2022-07-30T00:04:29.919Z,2.30
2022-07-30T00:06:57.899Z,1.67
2022-07-30T00:09:25.756Z,2.20
2022-07-30T00:11:53.465Z,2.30
2022-07-30T00:14:21.139Z,2.00
2022-07-30T00:16:50.476Z,1.67
2022-07-30T00:19:18.157Z,1.93
2022-07-30T00:21:50.439Z,2.23
2022-07-30T00:24:18.508Z,3.03
2022-07-30T00:26:46.200Z,1.57
2022-07-30T00:29:14.139Z,2.00
2022-07-30T00:31:41.988Z,2.20
2022-07-30T00:34:12.957Z,2.00
2022-07-30T00:36:40.759Z,1.73
2022-07-30T00:39:08.484Z,2.10
2022-07-30T00:41:38.011Z,1.80
2022-07-30T00:44:06.078Z,2.03
2022-07-30T00:46:33.775Z,1.73
2022-07-30T00:49:01.500Z,2.00
2022-07-30T00:51:31.041Z,2.20
2022-07-30T00:54:01.630Z,2.50
2022-07-30T00:56:29.297Z,1.70
2022-07-30T00:58:56.978Z,1.47
2022-07-30T01:01:24.688Z,1.70
2022-07-30T01:03:52.507Z,1.60
2022-07-30T01:06:21.249Z,1.90
2022-07-30T01:08:50.272Z,1.90
2022-07-30T01:11:18.132Z,2.10
2022-07-30T01:13:46.497Z,2.00
2022-07-30T01:16:14.866Z,2.43
2022-07-30T01:19:12.414Z,2.30
2022-07-30T01:21:45.060Z,2.07
2022-07-30T01:24:23.375Z,2.07
2022-07-30T01:26:53.104Z,2.10
2022-07-30T01:29:22.127Z,1.70
2022-07-30T01:31:51.520Z,2.63
2022-07-30T01:34:20.220Z,2.53
2022-07-30T01:36:48.457Z,2.40
2022-07-30T01:39:20.456Z,2.50
2022-07-30T01:41:51.619Z,1.90
2022-07-30T01:44:23.766Z,2.40
2022-07-30T01:46:54.803Z,3.00
2022-07-30T01:49:23.967Z,2.20
2022-07-30T01:51:52.885Z,2.10
2022-07-30T01:54:22.963Z,2.43
2022-07-30T01:56:55.126Z,1.80
2022-07-30T01:59:26.034Z,2.40
2022-07-30T02:01:53.867Z,2.13
2022-07-30T02:04:21.703Z,2.20
2022-07-30T02:07:00.046Z,2.30
2022-07-30T02:09:32.429Z,2.43
2022-07-30T02:12:20.443Z,2.87
2022-07-30T02:14:53.272Z,2.00
2022-07-30T02:17:30.020Z,2.20
2022-07-30T02:20:00.189Z,2.10
2022-07-30T02:22:32.390Z,2.57
2022-07-30T02:25:02.672Z,2.43
2022-07-30T02:27:33.378Z,2.27
2022-07-30T02:30:04.571Z,2.90
2022-07-30T02:32:38.731Z,2.57
2022-07-30T02:35:12.250Z,2.40
2022-07-30T02:37:43.510Z,2.53
2022-07-30T02:40:16.886Z,2.40
2022-07-30T02:42:47.696Z,2.77
2022-07-30T02:45:21.078Z,2.17
2022-07-30T02:47:52.490Z,2.90
2022-07-30T02:50:23.112Z,2.60
2022-07-30T02:52:52.048Z,2.60
2022-07-30T02:55:24.933Z,3.20
2022-07-30T02:57:54.527Z,3.43
2022-07-30T03:00:25.385Z,3.13
2022-07-30T03:02:56.839Z,3.60
2022-07-30T03:05:26.827Z,2.70
2022-07-30T03:07:57.503Z,3.23
2022-07-30T03:10:27.030Z,3.30
2022-07-30T03:12:56.100Z,3.73
2022-07-30T03:15:26.769Z,3.87
2022-07-30T03:17:55.722Z,3.53
2022-07-30T03:20:29.119Z,3.23
2022-07-30T03:22:59.631Z,3.40
2022-07-30T03:25:31.928Z,3.63
2022-07-30T03:28:03.883Z,2.97
2022-07-30T03:30:35.484Z,3.30
2022-07-30T03:33:04.195Z,3.83
2022-07-30T03:35:33.221Z,3.60
2022-07-30T03:38:02.277Z,3.00
2022-07-30T03:40:31.186Z,3.63
2022-07-30T03:42:59.838Z,3.50
2022-07-30T03:45:28.188Z,3.40
2022-07-30T03:48:06.075Z,4.00
2022-07-30T03:50:36.454Z,3.70
2022-07-30T03:53:05.471Z,3.60
2022-07-30T03:55:36.254Z,3.33
2022-07-30T03:58:22.719Z,3.73
2022-07-30T04:00:52.319Z,4.13
2022-07-30T04:03:28.144Z,3.70
2022-07-30T04:06:00.536Z,3.37
2022-07-30T04:08:29.821Z,3.90
2022-07-30T04:10:57.821Z,4.03
2022-07-30T04:13:45.831Z,4.07
2022-07-30T04:16:41.319Z,3.73
2022-07-30T04:19:17.229Z,3.60
2022-07-30T04:21:47.964Z,3.90
2022-07-30T04:24:18.128Z,3.83
2022-07-30T04:26:47.395Z,4.37
2022-07-30T04:29:21.399Z,3.93
2022-07-30T04:31:53.697Z,3.50
2022-07-30T04:34:48.745Z,4.00
2022-07-30T04:37:24.153Z,4.43
2022-07-30T04:39:54.562Z,4.07
2022-07-30T04:42:22.861Z,4.00
2022-07-30T04:45:01.625Z,4.10
2022-07-30T04:47:34.978Z,4.13
2022-07-30T04:50:26.717Z,4.80
2022-07-30T04:52:57.016Z,4.40
2022-07-30T04:55:28.948Z,3.90
2022-07-30T04:57:59.266Z,4.53
2022-07-30T05:00:32.624Z,3.80
2022-07-30T05:03:04.519Z,3.90
2022-07-30T05:05:34.827Z,4.10
2022-07-30T05:08:03.719Z,4.03
2022-07-30T05:10:32.461Z,5.60
2022-07-30T05:13:01.494Z,4.80
2022-07-30T05:15:36.251Z,2.70
2022-07-30T05:18:07.384Z,3.60
2022-07-30T05:20:39.662Z,3.87
2022-07-30T05:23:17.088Z,4.30
2022-07-30T05:25:52.003Z,3.90
2022-07-30T05:28:30.017Z,3.87
2022-07-30T05:31:01.149Z,4.10
2022-07-30T05:33:41.221Z,4.30
2022-07-30T05:36:13.757Z,3.93
2022-07-30T05:38:41.743Z,4.17
2022-07-30T05:41:31.900Z,4.00
2022-07-30T05:44:11.604Z,3.70
2022-07-30T05:46:39.440Z,3.90
2022-07-30T05:49:07.370Z,4.03
2022-07-30T05:51:36.542Z,3.70
2022-07-30T05:54:05.229Z,3.80
2022-07-30T05:57:09.023Z,3.33
2022-07-30T05:59:39.221Z,3.97
2022-07-30T06:02:10.891Z,4.20
2022-07-30T06:04:56.753Z,4.10
2022-07-30T06:07:26.558Z,3.70
2022-07-30T06:09:59.978Z,4.00
2022-07-30T06:12:28.553Z,4.40
2022-07-30T06:14:56.540Z,3.93
2022-07-30T06:17:30.005Z,3.57
2022-07-30T06:20:10.833Z,4.03
2022-07-30T06:22:52.113Z,4.10
2022-07-30T06:25:40.994Z,4.00
2022-07-30T06:28:34.717Z,4.70
2022-07-30T06:30:57.774Z,3.80
2022-07-30T06:33:28.411Z,4.17
2022-07-30T06:35:56.480Z,4.50
2022-07-30T06:38:29.269Z,5.17
2022-07-30T06:41:04.581Z,4.60
2022-07-30T06:43:50.909Z,5.33
2022-07-30T06:46:37.482Z,4.80
2022-07-30T06:49:05.435Z,5.63
2022-07-30T06:51:33.856Z,4.90
2022-07-30T06:54:03.312Z,5.20
2022-07-30T06:56:37.303Z,5.10
2022-07-30T06:59:07.683Z,5.20
2022-07-30T07:01:57.224Z,5.97
2022-07-30T07:04:25.009Z,5.83
2022-07-30T07:06:53.385Z,5.57
2022-07-30T07:09:31.319Z,5.30
2022-07-30T07:12:40.853Z,5.50
2022-07-30T07:15:11.091Z,6.10
2022-07-30T07:17:40.407Z,6.83
2022-07-30T07:20:22.373Z,6.33
2022-07-30T07:22:57.589Z,6.77
2022-07-30T07:25:28.427Z,6.23
2022-07-30T07:28:12.237Z,6.87
2022-07-30T07:30:44.159Z,7.00
2022-07-30T07:33:16.332Z,6.43
2022-07-30T07:35:49.453Z,6.00
2022-07-30T07:38:24.647Z,6.80
2022-07-30T07:40:59.114Z,6.80
2022-07-30T07:43:28.420Z,6.93
2022-07-30T07:45:59.554Z,7.57
2022-07-30T07:48:31.001Z,6.00
2022-07-30T07:51:46.665Z,6.73
2022-07-30T07:54:21.610Z,6.60
2022-07-30T07:56:53.005Z,7.00
2022-07-30T07:59:35.901Z,6.50
2022-07-30T08:02:09.656Z,6.17
2022-07-30T08:04:54.242Z,5.90
2022-07-30T08:07:27.718Z,5.97
2022-07-30T08:10:30.763Z,5.50
2022-07-30T08:13:52.247Z,5.67
2022-07-30T08:16:35.061Z,4.93
2022-07-30T08:19:38.065Z,5.00
2022-07-30T08:22:16.613Z,4.10
2022-07-30T08:24:45.487Z,5.17
2022-07-30T08:27:13.206Z,4.73
2022-07-30T08:29:42.377Z,5.90
2022-07-30T08:32:10.711Z,5.43
2022-07-30T08:34:40.756Z,4.97
2022-07-30T08:37:09.434Z,11.40
2022-07-30T08:39:37.814Z,12.00
2022-07-30T08:42:06.187Z,28.13
2022-07-30T08:44:36.249Z,9.20
2022-07-30T08:47:08.667Z,6.27
2022-07-30T08:50:16.750Z,4.00
2022-07-30T08:53:05.031Z,5.00
2022-07-30T08:55:33.647Z,4.73
2022-07-30T08:58:01.543Z,4.73
2022-07-30T09:00:31.346Z,5.07
2022-07-30T09:03:01.990Z,3.87
2022-07-30T09:05:29.817Z,5.00
2022-07-30T09:07:57.847Z,3.97
2022-07-30T09:10:26.824Z,4.07
2022-07-30T09:12:54.715Z,4.67
2022-07-30T09:15:23.610Z,4.53
2022-07-30T09:17:55.711Z,4.10
2022-07-30T09:20:27.474Z,4.10
2022-07-30T09:22:57.120Z,3.53
2022-07-30T09:25:45.086Z,3.63
2022-07-30T09:28:42.882Z,3.97
2022-07-30T09:31:17.250Z,3.73
2022-07-30T09:34:03.788Z,4.10
2022-07-30T09:37:03.856Z,4.10
2022-07-30T09:39:59.014Z,3.70
2022-07-30T09:43:05.273Z,3.37
2022-07-30T09:45:34.888Z,3.03
2022-07-30T09:48:03.609Z,2.47
2022-07-30T09:50:31.287Z,3.40
2022-07-30T09:53:09.676Z,3.47
2022-07-30T09:55:42.300Z,2.80
2022-07-30T09:58:26.584Z,2.70
2022-07-30T10:00:59.602Z,3.60
2022-07-30T10:03:44.002Z,3.07
2022-07-30T10:06:34.390Z,2.40
2022-07-30T10:09:13.719Z,2.70
2022-07-30T10:11:44.796Z,2.67
2022-07-30T10:14:13.510Z,2.70
2022-07-30T10:16:42.018Z,2.90
2022-07-30T10:19:18.061Z,2.47
2022-07-30T10:22:11.619Z,3.07
2022-07-30T10:25:07.711Z,2.30
2022-07-30T10:27:57.773Z,2.20
2022-07-30T10:30:31.845Z,2.43
2022-07-30T10:33:01.555Z,2.00
2022-07-30T10:35:34.698Z,2.77
2022-07-30T10:38:13.933Z,2.13
2022-07-30T10:40:49.242Z,1.97
2022-07-30T10:43:48.179Z,3.10
2022-07-30T10:46:29.747Z,2.10
2022-07-30T10:49:11.830Z,2.00
2022-07-30T10:51:48.533Z,2.27
2022-07-30T10:54:40.211Z,2.00
2022-07-30T10:57:15.074Z,1.93
2022-07-30T11:00:15.588Z,1.50
2022-07-30T11:03:14.999Z,2.33
2022-07-30T11:05:45.893Z,2.20
2022-07-30T11:08:37.546Z,1.70
2022-07-30T11:12:01.334Z,1.90
2022-07-30T11:15:06.489Z,1.73
2022-07-30T11:18:01.912Z,1.90
2022-07-30T11:20:30.770Z,2.10
2022-07-30T11:23:12.726Z,1.67
2022-07-30T11:25:51.034Z,1.43
2022-07-30T11:28:41.080Z,2.27
2022-07-30T11:31:30.709Z,2.20
2022-07-30T11:34:30.747Z,2.13
2022-07-30T11:37:21.903Z,1.80
2022-07-30T11:40:13.034Z,1.50
2022-07-30T11:42:43.262Z,1.87
2022-07-30T11:45:23.253Z,2.10
2022-07-30T11:47:54.430Z,2.60
2022-07-30T11:50:23.984Z,2.43
2022-07-30T11:52:52.646Z,2.17
2022-07-30T11:55:25.423Z,1.73
2022-07-30T11:57:53.505Z,1.97
2022-07-30T12:00:21.364Z,1.90
2022-07-30T12:05:25.192Z,1.67
2022-07-30T12:07:56.901Z,2.23
2022-07-30T12:10:26.781Z,1.70
2022-07-30T12:13:08.124Z,1.30
2022-07-30T12:15:38.037Z,1.37
2022-07-30T12:18:24.548Z,1.53
2022-07-30T12:21:00.599Z,1.30
2022-07-30T12:23:29.235Z,1.43
2022-07-30T12:25:58.139Z,1.37
2022-07-30T12:28:27.809Z,1.30
2022-07-30T12:30:56.846Z,1.00
2022-07-30T12:33:25.866Z,1.33
2022-07-30T12:35:55.097Z,1.50
2022-07-30T12:38:26.343Z,1.10
2022-07-30T12:40:59.585Z,1.40
2022-07-30T12:43:48.035Z,1.53
2022-07-30T12:46:17.843Z,1.30
2022-07-30T12:49:05.717Z,1.60
2022-07-30T12:51:52.176Z,1.60
2022-07-30T12:54:29.838Z,1.27
2022-07-30T12:57:00.363Z,1.23
2022-07-30T12:59:29.196Z,1.60
2022-07-30T13:02:00.300Z,1.60
2022-07-30T13:04:28.606Z,1.60
2022-07-30T13:07:07.573Z,2.00
2022-07-30T13:09:37.372Z,1.23
2022-07-30T13:12:06.269Z,1.63
2022-07-30T13:14:34.278Z,1.60
2022-07-30T13:17:04.297Z,1.90
2022-07-30T13:19:32.555Z,1.47
2022-07-30T13:22:00.289Z,1.60
2022-07-30T13:24:27.937Z,1.23
2022-07-30T13:26:57.310Z,1.20
2022-07-30T13:29:24.926Z,1.50
2022-07-30T13:31:52.742Z,1.43
2022-07-30T13:34:20.643Z,1.77
2022-07-30T13:36:48.302Z,1.50
2022-07-30T13:39:15.922Z,1.60
2022-07-30T13:41:43.686Z,1.60
2022-07-30T13:44:12.721Z,1.50
2022-07-30T13:46:41.426Z,1.80
2022-07-30T13:49:09.356Z,1.93
2022-07-30T13:51:37.149Z,1.13
2022-07-30T13:54:05.068Z,1.40
2022-07-30T13:56:32.749Z,1.70
2022-07-30T13:59:00.645Z,1.20
2022-07-30T14:01:29.817Z,1.57
2022-07-30T14:03:57.539Z,1.27
2022-07-30T14:06:25.305Z,1.60
2022-07-30T14:08:52.985Z,1.97
2022-07-30T14:11:20.672Z,1.57
2022-07-30T14:13:48.310Z,1.33
2022-07-30T14:16:42.287Z,1.80
2022-07-30T14:19:05.091Z,1.50
2022-07-30T14:21:32.810Z,1.80
2022-07-30T14:24:00.458Z,1.57
